createdAt,value
2022-12-04T00:02:10.626Z,94857
2022-12-04T00:05:35.896Z,94857
2022-12-04T00:09:01.153Z,94855
2022-12-04T00:12:26.397Z,94858
2022-12-04T00:15:51.714Z,94852
2022-12-04T00:19:16.886Z,94852
2022-12-04T00:22:42.149Z,94849
2022-12-04T00:26:07.471Z,94844
2022-12-04T00:29:32.711Z,94846
2022-12-04T00:32:58.021Z,94843
2022-12-04T00:36:23.248Z,94846
2022-12-04T00:39:48.519Z,94839
2022-12-04T00:43:13.771Z,94836
2022-12-04T00:46:39.027Z,94829
2022-12-04T00:50:04.315Z,94832
2022-12-04T00:53:29.628Z,94830
2022-12-04T00:56:54.903Z,94837
2022-12-04T01:00:20.163Z,94825
2022-12-04T01:03:45.432Z,94831
2022-12-04T01:07:10.723Z,94826
2022-12-04T01:10:35.965Z,94827
2022-12-04T01:14:01.234Z,94825
2022-12-04T01:17:26.528Z,94826
2022-12-04T01:20:51.771Z,94827
2022-12-04T01:24:17.129Z,94825
2022-12-04T01:27:42.395Z,94821
2022-12-04T01:31:07.670Z,94819
2022-12-04T01:34:32.894Z,94822
2022-12-04T01:37:58.153Z,94814
2022-12-04T01:41:23.494Z,94812
2022-12-04T01:44:48.734Z,94808
2022-12-04T01:48:14.044Z,94803
2022-12-04T01:51:39.296Z,94801
2022-12-04T01:55:04.596Z,94799
2022-12-04T01:58:29.903Z,94793
2022-12-04T02:01:55.237Z,94791
2022-12-04T02:05:20.367Z,94789
2022-12-04T02:08:45.599Z,94786
2022-12-04T02:12:10.870Z,94791
2022-12-04T02:15:36.139Z,94803
2022-12-04T02:19:01.350Z,94797
2022-12-04T02:22:26.606Z,94794
2022-12-04T02:25:51.873Z,94798
2022-12-04T02:29:17.103Z,94802
2022-12-04T02:32:42.379Z,94796
2022-12-04T02:36:07.597Z,94800
2022-12-04T02:39:32.820Z,94799
2022-12-04T02:42:58.069Z,94796
2022-12-04T02:46:23.384Z,94803
2022-12-04T02:49:48.585Z,94797
2022-12-04T02:53:13.809Z,94800
2022-12-04T02:56:39.048Z,94803
2022-12-04T03:00:04.339Z,94804
2022-12-04T03:03:29.590Z,94792
2022-12-04T03:06:54.919Z,94789
2022-12-04T03:10:20.141Z,94782
2022-12-04T03:13:45.375Z,94773
2022-12-04T03:17:10.734Z,94775
2022-12-04T03:20:35.886Z,94773
2022-12-04T03:24:01.148Z,94770
2022-12-04T03:27:26.419Z,94774
2022-12-04T03:30:51.743Z,94782
2022-12-04T03:34:16.946Z,94789
2022-12-04T03:37:42.209Z,94795
2022-12-04T03:41:07.465Z,94793
2022-12-04T03:44:32.662Z,94785
2022-12-04T03:47:57.950Z,94789
2022-12-04T03:51:23.212Z,94795
2022-12-04T03:54:48.483Z,94787
2022-12-04T03:58:13.773Z,94784
2022-12-04T04:01:39.123Z,94790
2022-12-04T04:05:04.254Z,94780
2022-12-04T04:08:29.642Z,94777
2022-12-04T04:11:54.718Z,94776
2022-12-04T04:15:19.995Z,94775
2022-12-04T04:18:45.227Z,94775
2022-12-04T04:22:10.459Z,94780
2022-12-04T04:25:35.719Z,94776
2022-12-04T04:29:00.965Z,94775
2022-12-04T04:32:26.267Z,94777
2022-12-04T04:35:51.427Z,94768
2022-12-04T04:39:16.657Z,94770
2022-12-04T04:42:41.931Z,94772
2022-12-04T04:46:07.300Z,94771
2022-12-04T04:49:32.472Z,94767
2022-12-04T04:52:57.678Z,94768
2022-12-04T04:56:22.935Z,94759
2022-12-04T04:59:48.161Z,94765
2022-12-04T05:03:13.491Z,94757
2022-12-04T05:06:38.678Z,94761
2022-12-04T05:10:03.881Z,94771
2022-12-04T05:13:29.121Z,94769
2022-12-04T05:16:54.372Z,94767
2022-12-04T05:20:19.614Z,94761
2022-12-04T05:23:44.909Z,94769
2022-12-04T05:27:10.115Z,94766
2022-12-04T05:30:35.344Z,94762
2022-12-04T05:34:00.588Z,94761
2022-12-04T05:37:25.852Z,94773
2022-12-04T05:40:51.093Z,94770
2022-12-04T05:44:16.290Z,94781
2022-12-04T05:47:41.554Z,94778
2022-12-04T05:51:06.812Z,94787
2022-12-04T05:54:32.064Z,94782
2022-12-04T05:57:57.400Z,94785
2022-12-04T06:01:22.668Z,94788
2022-12-04T06:04:47.901Z,94780
2022-12-04T06:08:13.259Z,94782
2022-12-04T06:11:38.440Z,94779
2022-12-04T06:15:04.547Z,94789
2022-12-04T06:18:29.752Z,94792
2022-12-04T06:21:55.000Z,94799
2022-12-04T06:25:20.288Z,94793
2022-12-04T06:28:45.599Z,94783
2022-12-04T06:32:12.219Z,94781
2022-12-04T06:35:36.070Z,94786
2022-12-04T06:39:01.340Z,94790
2022-12-04T06:42:26.655Z,94797
2022-12-04T06:45:51.933Z,94794
2022-12-04T06:49:17.154Z,94795
2022-12-04T06:52:42.379Z,94807
2022-12-04T06:56:07.774Z,94806
2022-12-04T06:59:33.136Z,94805
2022-12-04T07:02:58.420Z,94815
2022-12-04T07:06:23.692Z,94816
2022-12-04T07:09:48.898Z,94813
2022-12-04T07:13:14.167Z,94812
2022-12-04T07:16:41.297Z,94819
2022-12-04T07:20:04.750Z,94810
2022-12-04T07:23:30.073Z,94816
2022-12-04T07:26:55.298Z,94821
2022-12-04T07:30:20.583Z,94827
2022-12-04T07:33:45.870Z,94816
2022-12-04T07:37:11.188Z,94820
2022-12-04T07:40:36.490Z,94831
2022-12-04T07:44:01.936Z,94830
2022-12-04T07:47:27.227Z,94832
2022-12-04T07:50:52.511Z,94830
2022-12-04T07:54:17.780Z,94831
2022-12-04T07:57:43.020Z,94829
2022-12-04T08:01:08.336Z,94826
2022-12-04T08:04:33.638Z,94831
2022-12-04T08:07:58.826Z,94829
2022-12-04T08:11:24.054Z,94832
2022-12-04T08:14:49.363Z,94825
2022-12-04T08:18:14.593Z,94812
2022-12-04T08:21:39.901Z,94808
2022-12-04T08:25:05.160Z,94812
2022-12-04T08:28:30.420Z,94819
2022-12-04T08:31:55.701Z,94811
2022-12-04T08:35:20.955Z,94807
2022-12-04T08:38:46.211Z,94804
2022-12-04T08:42:11.443Z,94794
2022-12-04T08:45:36.682Z,94798
2022-12-04T08:49:01.979Z,94792
2022-12-04T08:52:27.179Z,94798
2022-12-04T08:55:52.434Z,94800
2022-12-04T08:59:17.679Z,94798
2022-12-04T09:02:42.930Z,94792
2022-12-04T09:06:08.222Z,94804
2022-12-04T09:09:33.420Z,94801
2022-12-04T09:12:58.718Z,94807
2022-12-04T09:16:24.903Z,94819
2022-12-04T09:19:50.092Z,94825
2022-12-04T09:23:20.166Z,94826
2022-12-04T09:26:49.083Z,94831
2022-12-04T09:31:12.999Z,94825
2022-12-04T09:34:51.271Z,94816
2022-12-04T09:38:17.186Z,94811
2022-12-04T09:41:42.948Z,94811
2022-12-04T09:45:11.144Z,94801
2022-12-04T09:48:37.125Z,94797
2022-12-04T09:52:04.255Z,94785
2022-12-04T09:55:29.996Z,94786
2022-12-04T09:58:56.592Z,94787
2022-12-04T10:02:22.720Z,94795
2022-12-04T10:05:48.209Z,94805
2022-12-04T10:09:13.465Z,94802
2022-12-04T10:12:38.813Z,94796
2022-12-04T10:16:04.158Z,94808
2022-12-04T10:19:29.298Z,94811
2022-12-04T10:22:54.517Z,94820
2022-12-04T10:26:19.761Z,94824
2022-12-04T10:29:45.164Z,94826
2022-12-04T10:33:10.398Z,94825
2022-12-04T10:36:35.612Z,94818
2022-12-04T10:40:00.840Z,94814
2022-12-04T10:43:26.081Z,94808
2022-12-04T10:46:51.366Z,94805
2022-12-04T10:50:16.585Z,94794
2022-12-04T10:53:41.814Z,94796
2022-12-04T10:57:07.055Z,94791
2022-12-04T11:00:32.291Z,94794
2022-12-04T11:03:57.524Z,94785
2022-12-04T11:07:22.795Z,94788
2022-12-04T11:10:48.005Z,94784
2022-12-04T11:14:13.257Z,94777
2022-12-04T11:17:38.492Z,94773
2022-12-04T11:21:03.705Z,94774
2022-12-04T11:24:28.970Z,94777
2022-12-04T11:27:54.141Z,94768
2022-12-04T11:31:19.432Z,94760
2022-12-04T11:34:44.618Z,94758
2022-12-04T11:38:09.898Z,94754
2022-12-04T11:41:35.182Z,94753
2022-12-04T11:45:00.387Z,94749
2022-12-04T11:48:25.641Z,94738
2022-12-04T11:51:50.868Z,94736
2022-12-04T11:55:16.115Z,94736
2022-12-04T11:58:41.406Z,94741
2022-12-04T12:02:06.738Z,94734
2022-12-04T12:05:31.903Z,94727
2022-12-04T12:08:57.171Z,94724
2022-12-04T12:12:22.416Z,94720
2022-12-04T12:15:47.706Z,94716
2022-12-04T12:19:12.936Z,94716
2022-12-04T12:22:38.209Z,94698
2022-12-04T12:26:03.461Z,94701
2022-12-04T12:29:28.701Z,94690
2022-12-04T12:32:54.015Z,94678
2022-12-04T12:36:19.217Z,94673
2022-12-04T12:39:44.470Z,94666
2022-12-04T12:43:09.758Z,94685
2022-12-04T12:46:34.996Z,94682
2022-12-04T12:50:00.286Z,94682
2022-12-04T12:53:25.530Z,94684
2022-12-04T12:56:50.804Z,94683
2022-12-04T13:00:16.054Z,94686
2022-12-04T13:03:41.296Z,94683
2022-12-04T13:07:06.637Z,94679
2022-12-04T13:10:31.977Z,94668
2022-12-04T13:13:57.189Z,94667
2022-12-04T13:17:23.220Z,94668
2022-12-04T13:20:48.510Z,94660
2022-12-04T13:24:14.868Z,94664
2022-12-04T13:27:41.557Z,94663
2022-12-04T13:31:07.067Z,94671
2022-12-04T13:34:32.425Z,94675
2022-12-04T13:38:38.274Z,94683
2022-12-04T13:47:11.968Z,94690
2022-12-04T13:51:02.071Z,94685
2022-12-04T13:54:37.189Z,94684
2022-12-04T13:58:18.467Z,94676
2022-12-04T14:02:06.597Z,94672
2022-12-04T14:06:11.439Z,94656
2022-12-04T14:09:58.454Z,94650
2022-12-04T14:14:36.438Z,94656
2022-12-04T14:18:08.988Z,94646
2022-12-04T14:21:39.902Z,94651
2022-12-04T14:25:05.288Z,94655
2022-12-04T14:28:30.673Z,94659
2022-12-04T15:06:33.696Z,94662
2022-12-04T15:09:59.063Z,94663
2022-12-04T15:13:24.427Z,94658
2022-12-04T15:16:49.873Z,94654
2022-12-04T15:20:15.314Z,94656
2022-12-04T15:23:40.791Z,94658
2022-12-04T15:27:06.382Z,94658
2022-12-04T15:30:31.934Z,94660
2022-12-04T15:33:57.327Z,94664
2022-12-04T15:37:22.796Z,94661
2022-12-04T15:40:48.244Z,94654
2022-12-04T15:44:13.582Z,94653
2022-12-04T15:47:39.751Z,94659
2022-12-04T15:51:05.121Z,94653
2022-12-04T15:54:30.579Z,94640
2022-12-04T15:57:58.792Z,94632
2022-12-04T16:01:24.259Z,94636
2022-12-04T16:04:49.589Z,94639
2022-12-04T16:08:14.971Z,94640
2022-12-04T16:11:40.409Z,94637
2022-12-04T16:15:06.736Z,94644
2022-12-04T16:18:32.398Z,94638
2022-12-04T16:21:57.968Z,94649
2022-12-04T16:25:23.555Z,94640
2022-12-04T16:28:49.234Z,94643
2022-12-04T16:32:15.103Z,94640
2022-12-04T16:35:43.856Z,94640
2022-12-04T16:39:13.724Z,94638
2022-12-04T16:42:39.444Z,94637
2022-12-04T16:46:04.913Z,94636
2022-12-04T16:49:30.914Z,94632
2022-12-04T16:52:56.260Z,94638
2022-12-04T16:56:23.330Z,94638
2022-12-04T16:59:48.774Z,94639
2022-12-04T17:03:14.138Z,94643
2022-12-04T17:06:39.542Z,94640
2022-12-04T17:10:04.818Z,94632
2022-12-04T17:13:30.225Z,94639
2022-12-04T17:16:56.559Z,94639
2022-12-04T17:20:21.966Z,94639
2022-12-04T17:23:47.282Z,94640
2022-12-04T17:27:14.542Z,94649
2022-12-04T17:30:39.885Z,94649
2022-12-04T17:34:05.288Z,94654
2022-12-04T17:37:31.534Z,94650
2022-12-04T17:40:56.939Z,94640
2022-12-04T17:44:22.296Z,94638
2022-12-04T17:47:47.758Z,94640
2022-12-04T17:51:13.198Z,94645
2022-12-04T17:54:38.581Z,94651
2022-12-04T17:58:03.959Z,94646
2022-12-04T18:01:29.452Z,94641
2022-12-04T18:04:55.123Z,94637
2022-12-04T18:08:23.046Z,94639
2022-12-04T18:11:48.493Z,94645
2022-12-04T18:15:13.887Z,94640
2022-12-04T18:18:39.292Z,94650
2022-12-04T18:22:04.709Z,94659
2022-12-04T18:25:30.174Z,94646
2022-12-04T18:28:55.606Z,94652
2022-12-04T18:32:21.081Z,94655
2022-12-04T18:35:46.453Z,94656
2022-12-04T18:39:11.880Z,94651
2022-12-04T18:42:37.263Z,94644
2022-12-04T18:46:07.243Z,94652
2022-12-04T18:49:28.119Z,94656
2022-12-04T18:52:58.921Z,94657
2022-12-04T18:56:18.846Z,94663
2022-12-04T18:59:44.247Z,94653
2022-12-04T19:03:09.648Z,94650
2022-12-04T19:06:35.078Z,94649
2022-12-04T19:10:15.821Z,94650
2022-12-04T19:13:25.811Z,94657
2022-12-04T19:16:51.382Z,94657
2022-12-04T19:20:16.623Z,94654
2022-12-04T19:23:42.087Z,94648
2022-12-04T19:27:07.477Z,94655
2022-12-04T19:30:32.928Z,94650
2022-12-04T19:33:58.312Z,94657
2022-12-04T19:37:23.700Z,94659
2022-12-04T19:40:49.112Z,94658
2022-12-04T19:44:46.530Z,94659
2022-12-04T19:47:39.954Z,94648
2022-12-04T19:51:05.344Z,94649
2022-12-04T19:54:30.729Z,94643
2022-12-04T19:57:56.493Z,94651
2022-12-04T20:01:22.225Z,94651
2022-12-04T20:04:47.500Z,94649
2022-12-04T20:11:29.975Z,94657
2022-12-04T20:14:55.400Z,94655
2022-12-04T20:18:20.775Z,94656
2022-12-04T20:21:46.109Z,94653
2022-12-04T20:25:11.524Z,94651
2022-12-04T20:28:36.860Z,94656
2022-12-04T20:32:02.334Z,94655
2022-12-04T20:35:27.674Z,94655
2022-12-04T20:38:53.001Z,94652
2022-12-04T20:42:18.352Z,94651
2022-12-04T20:45:43.683Z,94649
2022-12-04T20:49:08.963Z,94650
2022-12-04T20:52:34.272Z,94656
2022-12-04T20:55:59.554Z,94649
2022-12-04T20:59:24.862Z,94650
2022-12-04T21:02:50.246Z,94654
2022-12-04T21:06:15.531Z,94645
2022-12-04T21:09:40.834Z,94655
2022-12-04T21:13:06.099Z,94654
2022-12-04T21:16:31.446Z,94646
2022-12-04T21:19:57.003Z,94654
2022-12-04T21:23:21.917Z,94654
2022-12-04T21:26:47.135Z,94660
2022-12-04T21:30:12.354Z,94661
2022-12-04T21:33:37.613Z,94660
2022-12-04T21:37:02.882Z,94665
2022-12-04T21:40:28.135Z,94653
2022-12-04T21:43:53.365Z,94652
2022-12-04T21:47:18.611Z,94658
2022-12-04T21:50:43.858Z,94659
2022-12-04T21:54:09.080Z,94664
2022-12-04T21:57:34.386Z,94658
2022-12-04T22:00:59.602Z,94658
2022-12-04T22:04:24.865Z,94660
2022-12-04T22:07:50.165Z,94664
2022-12-04T22:11:15.358Z,94659
2022-12-04T22:14:40.640Z,94654
2022-12-04T22:18:05.884Z,94653
2022-12-04T22:21:32.125Z,94647
2022-12-04T22:24:58.609Z,94656
2022-12-04T22:28:22.605Z,94650
2022-12-04T22:31:47.899Z,94651
2022-12-04T22:35:13.074Z,94659
2022-12-04T22:38:52.471Z,94655
2022-12-04T22:42:03.571Z,94655
2022-12-04T22:45:28.806Z,94651
2022-12-04T22:48:54.073Z,94655
2022-12-04T22:52:19.274Z,94657
2022-12-04T22:55:44.510Z,94654
2022-12-04T22:59:09.754Z,94655
2022-12-04T23:02:35.018Z,94657
2022-12-04T23:06:00.293Z,94654
2022-12-04T23:09:25.492Z,94651
2022-12-04T23:12:50.738Z,94649
2022-12-04T23:16:19.999Z,94649
2022-12-04T23:19:41.201Z,94656
2022-12-04T23:23:06.477Z,94654
2022-12-04T23:26:31.700Z,94659
2022-12-04T23:29:56.947Z,94663
2022-12-04T23:33:22.176Z,94659
2022-12-04T23:36:47.464Z,94663
2022-12-04T23:40:12.727Z,94661
2022-12-04T23:43:37.950Z,94657
2022-12-04T23:47:03.230Z,94653
2022-12-04T23:50:28.425Z,94655
2022-12-04T23:53:53.673Z,94654
2022-12-04T23:57:18.948Z,94653
